Airfield :
LOGIN :

Register | Disclaimer

   EN    FR    IT 

 










Legend :    VFR   Marginal VFR   IFR   Intensive IFR   Very Intensive IFR
Visi :
Ceiling :
>= 8 km
>= 3000ft
5 to 8 km
1000 to 3000 ft
1500m to 5 km
500 to 1000 ft
800 to 1500m
200 to 500 ft
< 800m
< 200 ft
Symbols :   Thunderstorms  Fog  Heavy snow  Heavy precipitations  Wind > 20 kt
SIGMETs :     Misc.  Thunderstorms  Icing  Turbulence  Mountain Waves  Volcanic Ashes






- Airport Elevation : 22 ft
- IATA code : SKG


LGTS - Thessaloniki

CURRENT METAR :
  • 050050Z 36013KT 9999 RA SCT012 BKN025 11/08 Q1010 NOSIG

EXPIRED METARs :
  • 050020Z 36012KT 9999 RA SCT012 BKN025 11/08 Q1010 NOSIG
  • 042350Z 33015KT 9999 RA SCT012 BKN025 11/08 Q1010 NOSIG
  • 042320Z 35015KT 9999 RA SCT012 BKN025 11/08 Q1011 NOSIG
  • 042250Z 35015KT 9999 -RA SCT012 BKN025 11/08 Q1011 NOSIG
  • 042220Z 02010G20KT 9999 -RA SCT012 BKN025 11/08 Q1011 NOSIG
  • 042150Z 33013G23KT 9999 -RA SCT012 BKN025 11/07 Q1012 NOSIG

TAF TAF LGTS
Valid from the 05 at 00:00 until the 06 at 00:00 UTC


042300Z 0500/0524 34015KT 7000 SCT008 BKN020
TEMPO 0500/0515 5000 RA
PROB40
TEMPO 0500/0506 4000 SHRA SCT008 FEW020TCU BKN020
BECMG 0515/0517 FEW025
TEMPO 0500/0509 34015G25KT



MET'MAP, your aeronautical weather chart ! - Copyright ORBIFLY December 2007 - Disclaimer

ORBIFLY MET'MAP TEAM :

Programming & Development : Alexandra Zaïnal
Concept & original design : Baudouin d'Aumeries
Assistance for programming : Marc-Olivier Méhu
Technical & hardware support : Manuel Goepfert

Contact : metmap@orbifly.com




SOURCES & CREDITS :

   NOAA